createdAt,value
2019-05-10T00:01:14.525Z,11.84
2019-05-10T00:04:04.651Z,11.85
2019-05-10T00:06:54.108Z,11.84
2019-05-10T00:09:24.708Z,11.81
2019-05-10T00:11:57.626Z,11.88
2019-05-10T00:14:36.468Z,11.80
2019-05-10T00:17:09.493Z,11.80
2019-05-10T00:19:41.008Z,11.84
2019-05-10T00:22:12.357Z,11.84
2019-05-10T00:24:43.808Z,11.77
2019-05-10T00:27:15.838Z,11.84
2019-05-10T00:29:47.514Z,11.84
2019-05-10T00:32:18.980Z,11.89
2019-05-10T00:34:50.468Z,11.77
2019-05-10T00:37:22.325Z,11.82
2019-05-10T00:39:53.707Z,11.82
2019-05-10T00:42:25.017Z,11.89
2019-05-10T00:44:56.366Z,11.80
2019-05-10T00:47:27.681Z,11.80
2019-05-10T00:50:00.170Z,11.83
2019-05-10T00:52:31.523Z,11.81
2019-05-10T00:55:16.731Z,11.80
2019-05-10T00:57:35.872Z,11.81
2019-05-10T01:00:08.301Z,11.84
2019-05-10T01:02:39.523Z,11.75
2019-05-10T01:05:10.919Z,11.76
2019-05-10T01:07:42.376Z,11.62
2019-05-10T01:10:14.604Z,11.67
2019-05-10T01:12:45.768Z,11.66
2019-05-10T01:15:17.712Z,11.69
2019-05-10T01:17:49.007Z,11.56
2019-05-10T01:20:20.714Z,11.65
2019-05-10T01:22:52.066Z,11.64
2019-05-10T01:25:34.546Z,11.64
2019-05-10T01:27:56.588Z,11.61
2019-05-10T01:30:28.051Z,11.51
2019-05-10T01:32:59.545Z,11.52
2019-05-10T01:35:31.267Z,11.43
2019-05-10T01:38:03.815Z,11.43
2019-05-10T01:40:35.233Z,11.42
2019-05-10T01:43:06.520Z,11.46
2019-05-10T01:45:37.822Z,11.41
2019-05-10T01:48:09.086Z,11.48
2019-05-10T01:50:40.433Z,11.45
2019-05-10T01:53:12.785Z,11.42
2019-05-10T01:55:52.114Z,11.36
2019-05-10T01:58:17.303Z,11.43
2019-05-10T02:00:48.683Z,11.52
2019-05-10T02:03:20.362Z,11.41
2019-05-10T02:05:51.752Z,11.33
2019-05-10T02:08:23.242Z,11.38
2019-05-10T02:10:54.557Z,11.39
2019-05-10T02:13:25.956Z,11.38
2019-05-10T02:15:57.192Z,11.35
2019-05-10T02:18:28.727Z,11.35
2019-05-10T02:21:00.276Z,11.28
2019-05-10T02:23:31.644Z,11.24
2019-05-10T02:26:09.625Z,11.32
2019-05-10T02:28:36.078Z,11.32
2019-05-10T02:31:07.533Z,11.25
2019-05-10T02:33:38.891Z,11.31
2019-05-10T02:36:10.254Z,11.37
2019-05-10T02:38:41.528Z,11.49
2019-05-10T02:41:12.924Z,11.45
2019-05-10T02:43:44.371Z,11.51
2019-05-10T02:46:15.707Z,11.55
2019-05-10T02:48:47.021Z,11.51
2019-05-10T02:51:18.344Z,11.52
2019-05-10T02:53:49.660Z,11.48
2019-05-10T02:56:30.265Z,11.59
2019-05-10T02:58:56.935Z,11.69
2019-05-10T03:01:30.055Z,11.47
2019-05-10T03:04:02.509Z,11.55
2019-05-10T03:06:38.408Z,11.70
2019-05-10T03:09:10.848Z,11.64
2019-05-10T03:11:50.004Z,11.91
2019-05-10T03:14:22.113Z,12.59
2019-05-10T03:16:53.560Z,12.62
2019-05-10T03:19:24.970Z,12.53
2019-05-10T03:22:09.410Z,12.27
2019-05-10T03:24:41.034Z,12.12
2019-05-10T03:27:12.427Z,12.12
2019-05-10T03:29:43.617Z,12.00
2019-05-10T03:32:14.937Z,12.19
2019-05-10T03:34:47.418Z,12.15
2019-05-10T03:37:19.091Z,12.28
2019-05-10T03:39:50.384Z,11.85
2019-05-10T03:42:21.773Z,12.00
2019-05-10T03:44:53.069Z,11.95
2019-05-10T03:47:24.420Z,12.18
2019-05-10T03:49:55.649Z,12.10
2019-05-10T03:52:26.844Z,12.02
2019-05-10T03:54:58.157Z,11.98
2019-05-10T03:57:30.641Z,11.89
2019-05-10T04:00:01.985Z,12.04
2019-05-10T04:02:33.424Z,12.07
2019-05-10T04:05:06.703Z,12.14
2019-05-10T04:07:38.065Z,12.02
2019-05-10T04:10:09.545Z,12.12
2019-05-10T04:12:40.997Z,12.11
2019-05-10T04:15:12.336Z,12.23
2019-05-10T04:17:43.709Z,12.50
2019-05-10T04:20:15.055Z,12.43
2019-05-10T04:22:46.360Z,12.36
2019-05-10T04:25:17.878Z,12.46
2019-05-10T04:27:49.306Z,12.60
2019-05-10T04:30:20.746Z,12.61
2019-05-10T04:32:52.075Z,12.71
2019-05-10T04:35:23.460Z,12.67
2019-05-10T04:37:54.906Z,12.90
2019-05-10T04:40:26.169Z,13.32
2019-05-10T04:42:57.492Z,12.84
2019-05-10T04:45:28.908Z,12.63
2019-05-10T04:48:00.273Z,12.71
2019-05-10T04:50:31.572Z,12.42
2019-05-10T04:53:02.898Z,12.87
2019-05-10T04:55:36.108Z,13.04
2019-05-10T04:58:07.541Z,12.86
2019-05-10T05:00:38.767Z,12.76
2019-05-10T05:03:10.290Z,12.84
2019-05-10T05:05:41.620Z,12.97
2019-05-10T05:08:13.041Z,13.00
2019-05-10T05:10:44.487Z,13.24
2019-05-10T05:13:15.924Z,13.14
2019-05-10T05:15:47.725Z,13.50
2019-05-10T05:18:19.091Z,13.17
2019-05-10T05:20:50.345Z,13.04
2019-05-10T05:23:21.640Z,13.43
2019-05-10T05:25:52.886Z,13.26
2019-05-10T05:28:24.733Z,13.32
2019-05-10T05:30:56.304Z,13.59
2019-05-10T05:33:27.669Z,13.67
2019-05-10T05:36:02.130Z,13.97
2019-05-10T05:38:32.351Z,13.88
2019-05-10T05:41:03.604Z,13.79
2019-05-10T05:43:35.021Z,13.81
2019-05-10T05:46:06.440Z,13.80
2019-05-10T05:48:40.301Z,14.01
2019-05-10T05:51:10.983Z,13.95
2019-05-10T05:53:44.653Z,13.65
2019-05-10T05:56:15.443Z,14.19
2019-05-10T05:58:47.082Z,14.61
2019-05-10T06:01:26.357Z,14.55
2019-05-10T06:03:51.791Z,14.30
2019-05-10T06:06:24.331Z,14.19
2019-05-10T06:08:59.763Z,14.19
2019-05-10T06:11:35.622Z,14.00
2019-05-10T06:14:10.422Z,14.19
2019-05-10T06:16:36.803Z,14.57
2019-05-10T06:19:08.035Z,14.76
2019-05-10T06:21:39.327Z,14.79
2019-05-10T06:24:13.289Z,14.73
2019-05-10T06:26:43.635Z,14.68
2019-05-10T06:29:17.650Z,14.88
2019-05-10T06:31:48.544Z,14.73
2019-05-10T06:34:19.934Z,14.97
2019-05-10T06:36:52.392Z,15.17
2019-05-10T06:39:23.719Z,15.06
2019-05-10T06:41:56.439Z,15.12
2019-05-10T06:44:31.433Z,15.27
2019-05-10T06:47:02.058Z,15.64
2019-05-10T06:49:34.326Z,15.16
2019-05-10T06:52:05.665Z,14.80
2019-05-10T06:54:37.114Z,14.88
2019-05-10T06:57:11.152Z,14.76
2019-05-10T06:59:41.181Z,14.90
2019-05-10T07:02:12.497Z,14.76
2019-05-10T07:04:43.733Z,15.12
2019-05-10T07:07:22.403Z,15.51
2019-05-10T07:10:04.219Z,15.46
2019-05-10T07:12:21.305Z,15.17
2019-05-10T07:14:52.638Z,15.03
2019-05-10T07:17:24.168Z,15.20
2019-05-10T07:19:55.530Z,15.18
2019-05-10T07:22:28.994Z,15.72
2019-05-10T07:25:04.157Z,15.28
2019-05-10T07:27:36.670Z,15.13
2019-05-10T07:30:09.009Z,15.58
2019-05-10T07:32:40.255Z,15.58
2019-05-10T07:35:12.302Z,15.58
2019-05-10T07:37:47.758Z,15.09
2019-05-10T07:40:17.045Z,14.82
2019-05-10T07:42:48.628Z,14.95
2019-05-10T07:45:25.749Z,15.40
2019-05-10T07:47:53.149Z,15.36
2019-05-10T07:50:24.438Z,15.58
2019-05-10T07:52:55.791Z,15.42
2019-05-10T07:55:29.738Z,15.57
2019-05-10T07:58:04.955Z,15.59
2019-05-10T08:00:37.988Z,15.46
2019-05-10T08:03:13.216Z,15.69
2019-05-10T08:05:39.304Z,15.26
2019-05-10T08:08:10.731Z,15.53
2019-05-10T08:10:41.993Z,15.84
2019-05-10T08:13:15.446Z,15.82
2019-05-10T08:15:46.204Z,15.83
2019-05-10T08:18:23.554Z,15.86
2019-05-10T08:20:58.250Z,16.00
2019-05-10T08:23:27.791Z,16.08
2019-05-10T08:25:56.599Z,16.21
2019-05-10T08:28:36.113Z,16.40
2019-05-10T08:31:02.640Z,16.04
2019-05-10T08:33:33.997Z,16.18
2019-05-10T08:36:05.747Z,16.27
2019-05-10T08:38:39.734Z,16.17
2019-05-10T08:41:14.335Z,16.34
2019-05-10T08:43:44.451Z,16.56
2019-05-10T08:46:19.487Z,16.48
2019-05-10T08:48:51.323Z,16.58
2019-05-10T08:51:22.760Z,16.59
2019-05-10T08:53:58.116Z,16.47
2019-05-10T08:56:27.366Z,16.43
2019-05-10T08:58:58.633Z,16.60
2019-05-10T09:01:31.393Z,16.71
2019-05-10T09:04:06.798Z,16.52
2019-05-10T09:06:36.044Z,16.57
2019-05-10T09:09:08.777Z,16.56
2019-05-10T09:11:44.047Z,17.49
2019-05-10T09:14:19.826Z,17.95
2019-05-10T09:16:56.377Z,17.88
2019-05-10T09:19:27.743Z,17.82
2019-05-10T09:21:55.025Z,18.20
2019-05-10T09:24:26.090Z,17.79
2019-05-10T09:26:57.828Z,17.28
2019-05-10T09:29:37.199Z,17.48
2019-05-10T09:32:06.638Z,17.84
2019-05-10T09:34:38.148Z,18.17
2019-05-10T09:37:14.519Z,18.14
2019-05-10T09:39:42.723Z,18.33
2019-05-10T09:42:25.137Z,17.86
2019-05-10T09:44:47.071Z,17.39
2019-05-10T09:47:18.417Z,17.42
2019-05-10T09:49:56.422Z,17.10
2019-05-10T09:52:25.004Z,17.33
2019-05-10T09:54:57.723Z,16.94
2019-05-10T09:57:32.093Z,16.91
2019-05-10T10:00:02.323Z,17.44
2019-05-10T10:02:34.089Z,17.06
2019-05-10T10:05:07.626Z,17.34
2019-05-10T10:07:39.113Z,17.50
2019-05-10T10:10:12.802Z,17.75
2019-05-10T10:12:47.540Z,17.75
2019-05-10T10:15:28.958Z,17.47
2019-05-10T10:17:51.992Z,17.11
2019-05-10T10:20:23.421Z,17.24
2019-05-10T10:22:55.899Z,17.22
2019-05-10T10:25:29.925Z,17.60
2019-05-10T10:28:00.236Z,17.30
2019-05-10T10:30:32.010Z,17.84
2019-05-10T10:33:05.881Z,17.65
2019-05-10T10:35:37.792Z,17.70
2019-05-10T10:38:10.555Z,17.80
2019-05-10T10:40:44.898Z,17.69
2019-05-10T10:43:15.083Z,17.60
2019-05-10T10:45:46.534Z,17.48
2019-05-10T10:48:18.058Z,18.00
2019-05-10T10:50:53.899Z,17.91
2019-05-10T10:53:22.628Z,17.70
2019-05-10T10:55:56.712Z,17.49
2019-05-10T10:58:27.636Z,17.56
2019-05-10T11:01:00.144Z,17.66
2019-05-10T11:03:32.583Z,17.85
2019-05-10T11:06:04.083Z,17.44
2019-05-10T11:08:35.539Z,17.49
2019-05-10T11:11:07.001Z,17.46
2019-05-10T11:13:43.768Z,17.28
2019-05-10T11:16:15.548Z,17.53
2019-05-10T11:18:45.666Z,17.85
2019-05-10T11:21:17.105Z,17.63
2019-05-10T11:23:48.572Z,17.79
2019-05-10T11:26:21.761Z,17.81
2019-05-10T11:28:53.222Z,17.90
2019-05-10T11:31:24.768Z,17.74
2019-05-10T11:33:58.735Z,17.33
2019-05-10T11:36:31.234Z,17.82
2019-05-10T11:39:05.740Z,17.96
2019-05-10T11:41:36.849Z,17.51
2019-05-10T11:44:11.210Z,17.53
2019-05-10T11:46:41.731Z,17.87
2019-05-10T11:49:13.114Z,17.45
2019-05-10T11:51:47.884Z,17.25
2019-05-10T11:54:17.891Z,17.19
2019-05-10T11:56:51.936Z,17.31
2019-05-10T11:59:27.466Z,17.32
2019-05-10T12:01:59.624Z,17.42
2019-05-10T12:04:36.260Z,17.46
2019-05-10T12:07:02.786Z,17.52
2019-05-10T12:09:33.917Z,17.91
2019-05-10T12:12:05.473Z,17.67
2019-05-10T12:14:36.854Z,17.75
2019-05-10T12:17:08.267Z,17.46
2019-05-10T12:19:47.756Z,17.49
2019-05-10T12:22:15.939Z,17.47
2019-05-10T12:25:04.792Z,17.27
2019-05-10T12:27:28.530Z,17.83
2019-05-10T12:29:59.689Z,17.49
2019-05-10T12:32:26.927Z,17.58
2019-05-10T12:34:58.496Z,17.75
2019-05-10T12:37:30.834Z,17.88
2019-05-10T12:40:09.930Z,17.83
2019-05-10T12:42:34.929Z,17.41
2019-05-10T12:45:07.954Z,17.64
2019-05-10T12:47:41.435Z,17.80
2019-05-10T12:50:12.989Z,17.70
2019-05-10T12:52:50.351Z,17.69
2019-05-10T12:55:17.420Z,18.07
2019-05-10T12:57:48.836Z,17.90
2019-05-10T13:00:20.245Z,18.02
2019-05-10T13:02:53.381Z,17.86
2019-05-10T13:05:32.119Z,18.08
2019-05-10T13:08:01.623Z,17.87
2019-05-10T13:10:37.127Z,17.89
2019-05-10T13:13:06.244Z,17.98
2019-05-10T13:15:37.671Z,17.87
2019-05-10T13:18:09.105Z,17.89
2019-05-10T13:20:40.594Z,18.15
2019-05-10T13:23:16.009Z,18.01
2019-05-10T13:25:45.623Z,17.88
2019-05-10T13:28:16.993Z,17.91
2019-05-10T13:30:48.420Z,17.71
2019-05-10T13:33:28.666Z,17.79
2019-05-10T13:35:56.722Z,17.64
2019-05-10T13:38:25.967Z,17.62
2019-05-10T13:40:57.375Z,17.45
2019-05-10T13:43:28.702Z,17.37
2019-05-10T13:46:00.038Z,17.57
2019-05-10T13:48:31.373Z,17.41
2019-05-10T13:51:02.653Z,17.18
2019-05-10T13:53:34.063Z,17.29
2019-05-10T13:56:05.385Z,17.18
2019-05-10T13:58:36.934Z,17.16
2019-05-10T14:01:13.264Z,17.27
2019-05-10T14:03:44.350Z,17.29
2019-05-10T14:06:14.362Z,17.35
2019-05-10T14:08:48.205Z,17.39
2019-05-10T14:11:20.024Z,17.39
2019-05-10T14:13:51.466Z,17.27
2019-05-10T14:16:22.863Z,17.14
2019-05-10T14:18:54.101Z,17.14
2019-05-10T14:21:25.453Z,17.18
2019-05-10T14:23:57.173Z,17.20
2019-05-10T14:26:28.631Z,17.09
2019-05-10T14:28:59.917Z,17.22
2019-05-10T14:31:31.328Z,17.19
2019-05-10T14:34:18.262Z,17.41
2019-05-10T14:36:41.225Z,17.41
2019-05-10T14:39:08.861Z,17.48
2019-05-10T14:41:45.327Z,17.70
2019-05-10T14:44:14.106Z,17.57
2019-05-10T14:46:45.491Z,17.77
2019-05-10T14:49:16.902Z,17.40
2019-05-10T14:51:58.559Z,17.06
2019-05-10T14:54:21.477Z,17.14
2019-05-10T14:56:54.122Z,16.73
2019-05-10T14:59:25.507Z,16.55
2019-05-10T15:01:56.765Z,16.34
2019-05-10T15:04:44.494Z,16.55
2019-05-10T15:07:01.080Z,16.57
2019-05-10T15:09:32.510Z,16.51
2019-05-10T15:12:03.833Z,16.34
2019-05-10T15:14:35.305Z,16.31
2019-05-10T15:17:07.816Z,16.34
2019-05-10T15:19:39.148Z,16.42
2019-05-10T15:22:10.580Z,16.40
2019-05-10T15:24:41.908Z,16.21
2019-05-10T15:27:16.286Z,16.29
2019-05-10T15:29:46.403Z,16.29
2019-05-10T15:32:17.719Z,16.40
2019-05-10T15:35:05.650Z,16.34
2019-05-10T15:37:21.944Z,16.28
2019-05-10T15:39:53.315Z,16.33
2019-05-10T15:42:24.763Z,16.46
2019-05-10T15:44:56.009Z,16.32
2019-05-10T15:47:27.209Z,16.19
2019-05-10T15:50:00.017Z,16.16
2019-05-10T15:52:31.562Z,16.20
2019-05-10T15:55:03.105Z,16.13
2019-05-10T15:57:34.730Z,16.06
2019-05-10T16:00:06.849Z,16.14
2019-05-10T16:02:38.159Z,15.94
2019-05-10T16:05:23.884Z,15.81
2019-05-10T16:07:46.561Z,15.78
2019-05-10T16:10:16.862Z,15.74
2019-05-10T16:12:48.211Z,15.78
2019-05-10T16:15:21.193Z,15.82
2019-05-10T16:17:59.540Z,15.77
2019-05-10T16:20:31.758Z,15.85
2019-05-10T16:23:02.746Z,15.86
2019-05-10T16:25:41.508Z,15.72
2019-05-10T16:28:05.991Z,15.69
2019-05-10T16:30:37.414Z,15.63
2019-05-10T16:33:09.852Z,15.49
2019-05-10T16:35:44.170Z,15.51
2019-05-10T16:38:14.997Z,15.32
2019-05-10T16:40:57.106Z,15.22
2019-05-10T16:43:24.266Z,15.15
2019-05-10T16:45:52.441Z,15.06
2019-05-10T16:48:23.767Z,14.96
2019-05-10T16:50:55.435Z,15.03
2019-05-10T16:53:26.722Z,14.87
2019-05-10T16:55:58.106Z,14.82
2019-05-10T16:58:29.420Z,14.80
2019-05-10T17:01:01.032Z,14.77
2019-05-10T17:03:32.501Z,14.69
2019-05-10T17:06:05.416Z,14.68
2019-05-10T17:08:38.773Z,14.70
2019-05-10T17:11:11.939Z,14.68
2019-05-10T17:13:43.437Z,14.60
2019-05-10T17:16:16.875Z,14.62
2019-05-10T17:18:49.870Z,14.65
2019-05-10T17:21:21.087Z,14.59
2019-05-10T17:23:53.392Z,14.54
2019-05-10T17:26:24.782Z,14.54
2019-05-10T17:28:56.165Z,14.46
2019-05-10T17:31:27.518Z,14.41
2019-05-10T17:33:58.892Z,14.40
2019-05-10T17:36:30.469Z,14.39
2019-05-10T17:39:01.797Z,14.33
2019-05-10T17:41:33.220Z,14.29
2019-05-10T17:44:04.551Z,14.28
2019-05-10T17:46:36.169Z,14.24
2019-05-10T17:49:07.559Z,14.22
2019-05-10T17:51:40.255Z,14.21
2019-05-10T17:54:11.664Z,14.18
2019-05-10T17:56:42.978Z,14.16
2019-05-10T17:59:14.298Z,14.16
2019-05-10T18:01:45.770Z,14.12
2019-05-10T18:04:17.203Z,14.12
2019-05-10T18:06:48.599Z,14.08
2019-05-10T18:09:20.020Z,14.08
2019-05-10T18:11:51.568Z,14.07
2019-05-10T18:14:22.898Z,14.08
2019-05-10T18:16:54.702Z,14.04
2019-05-10T18:19:27.854Z,13.98
2019-05-10T18:22:02.637Z,13.95
2019-05-10T18:24:36.256Z,13.95
2019-05-10T18:27:05.592Z,13.97
2019-05-10T18:29:37.062Z,13.95
2019-05-10T18:32:11.015Z,13.92
2019-05-10T18:34:41.359Z,13.90
2019-05-10T18:37:15.906Z,13.87
2019-05-10T18:39:47.396Z,13.85
2019-05-10T18:44:56.464Z,13.80
2019-05-10T18:47:27.809Z,13.80
2019-05-10T18:49:59.182Z,13.75
2019-05-10T18:52:30.610Z,13.73
2019-05-10T18:55:02.063Z,13.72
2019-05-10T18:57:33.608Z,13.68
2019-05-10T19:00:07.072Z,13.60
2019-05-10T19:02:38.510Z,13.58
2019-05-10T19:05:13.413Z,13.44
2019-05-10T19:07:42.728Z,13.47
2019-05-10T19:10:14.162Z,13.45
2019-05-10T19:12:45.880Z,13.57
2019-05-10T19:15:17.453Z,13.52
2019-05-10T19:17:48.862Z,13.47
2019-05-10T19:20:20.351Z,13.47
2019-05-10T19:22:51.586Z,13.56
2019-05-10T19:25:22.976Z,13.52
2019-05-10T19:27:54.325Z,13.43
2019-05-10T19:30:25.571Z,13.40
2019-05-10T19:32:58.119Z,13.33
2019-05-10T19:35:35.438Z,13.29
2019-05-10T19:38:03.157Z,13.29
2019-05-10T19:40:34.615Z,13.31
2019-05-10T19:43:06.085Z,13.28
2019-05-10T19:45:37.393Z,13.19
2019-05-10T19:48:08.990Z,13.21
2019-05-10T19:50:40.439Z,13.23
2019-05-10T19:53:11.925Z,13.20
2019-05-10T19:55:43.544Z,13.18
2019-05-10T19:58:14.866Z,13.15
2019-05-10T20:00:46.256Z,13.10
2019-05-10T20:03:17.682Z,13.09
2019-05-10T20:05:49.065Z,13.16
2019-05-10T20:08:20.387Z,13.16
2019-05-10T20:10:51.833Z,13.14
2019-05-10T20:13:23.063Z,13.23
2019-05-10T20:15:54.433Z,13.13
2019-05-10T20:18:25.739Z,13.14
2019-05-10T20:20:57.061Z,13.09
2019-05-10T20:23:28.472Z,13.10
2019-05-10T20:25:59.782Z,13.06
2019-05-10T20:28:31.191Z,13.07
2019-05-10T20:31:02.629Z,13.06
2019-05-10T20:33:34.128Z,13.07
2019-05-10T20:36:05.507Z,13.01
2019-05-10T20:38:37.866Z,12.98
2019-05-10T20:41:09.254Z,12.90
2019-05-10T20:43:40.562Z,12.87
2019-05-10T20:46:12.073Z,12.81
2019-05-10T20:48:43.542Z,12.86
2019-05-10T20:51:14.875Z,12.83
2019-05-10T20:53:48.211Z,12.78
2019-05-10T20:56:18.951Z,12.74
2019-05-10T20:58:49.969Z,12.73
2019-05-10T21:01:21.376Z,12.70
2019-05-10T21:03:52.805Z,12.71
2019-05-10T21:06:24.101Z,12.70
2019-05-10T21:08:55.445Z,12.70
2019-05-10T21:11:26.871Z,12.68
2019-05-10T21:13:58.259Z,12.63
2019-05-10T21:16:29.713Z,12.60
2019-05-10T21:19:01.227Z,12.60
2019-05-10T21:21:32.989Z,12.63
2019-05-10T21:24:04.561Z,12.64
2019-05-10T21:26:35.989Z,12.62
2019-05-10T21:29:07.398Z,12.60
2019-05-10T21:31:38.796Z,12.59
2019-05-10T21:34:10.455Z,12.53
2019-05-10T21:36:41.930Z,12.67
2019-05-10T21:39:13.354Z,12.66
2019-05-10T21:41:44.599Z,12.63
2019-05-10T21:44:16.038Z,12.59
2019-05-10T21:46:47.422Z,12.69
2019-05-10T21:49:18.853Z,12.74
2019-05-10T21:51:50.194Z,12.64
2019-05-10T21:54:21.568Z,12.65
2019-05-10T21:56:52.874Z,12.74
2019-05-10T21:59:24.085Z,12.81
2019-05-10T22:01:55.557Z,12.89
2019-05-10T22:04:27.035Z,12.90
2019-05-10T22:06:58.438Z,12.90
2019-05-10T22:09:29.816Z,13.02
2019-05-10T22:12:01.275Z,13.06
2019-05-10T22:14:32.638Z,13.07
2019-05-10T22:17:04.065Z,13.00
2019-05-10T22:19:35.424Z,13.11
2019-05-10T22:22:06.788Z,13.10
2019-05-10T22:24:38.165Z,13.10
2019-05-10T22:27:09.989Z,13.14
2019-05-10T22:29:41.378Z,13.21
2019-05-10T22:32:12.793Z,13.23
2019-05-10T22:34:44.053Z,13.26
2019-05-10T22:37:15.272Z,13.33
2019-05-10T22:39:46.394Z,13.21
2019-05-10T22:42:17.769Z,13.12
2019-05-10T22:44:49.161Z,13.13
2019-05-10T22:47:20.214Z,13.29
2019-05-10T22:49:51.488Z,13.30
2019-05-10T22:52:22.794Z,13.26
2019-05-10T22:54:54.026Z,13.35
2019-05-10T22:57:25.189Z,13.37
2019-05-10T22:59:56.466Z,13.30
2019-05-10T23:02:27.688Z,13.20
2019-05-10T23:04:59.018Z,13.23
2019-05-10T23:07:30.175Z,13.13
2019-05-10T23:10:01.583Z,13.06
2019-05-10T23:12:33.035Z,13.14
2019-05-10T23:15:06.180Z,13.19
2019-05-10T23:17:37.447Z,13.25
2019-05-10T23:20:08.712Z,13.31
2019-05-10T23:22:40.652Z,13.32
2019-05-10T23:25:11.892Z,13.35
2019-05-10T23:27:43.038Z,13.38
2019-05-10T23:30:15.281Z,13.26
2019-05-10T23:32:46.711Z,13.27
2019-05-10T23:35:18.260Z,13.15
2019-05-10T23:37:49.505Z,13.24
2019-05-10T23:40:20.853Z,13.28
2019-05-10T23:42:52.154Z,13.24
2019-05-10T23:45:23.345Z,13.25
2019-05-10T23:47:54.535Z,13.29
2019-05-10T23:50:25.728Z,13.34
2019-05-10T23:52:57.008Z,13.22
2019-05-10T23:55:28.331Z,13.26
2019-05-10T23:57:59.454Z,13.31
